createdAt,value
2024-02-15T00:03:16.105Z,9.76
2024-02-15T00:08:13.184Z,9.77
2024-02-15T00:13:11.169Z,9.83
2024-02-15T00:18:08.113Z,9.70
2024-02-15T00:23:04.899Z,9.70
2024-02-15T00:28:02.352Z,9.70
2024-02-15T00:33:00.021Z,9.67
2024-02-15T00:37:57.812Z,9.50
2024-02-15T00:42:55.373Z,9.57
2024-02-15T00:47:52.108Z,9.61
2024-02-15T00:52:49.392Z,9.64
2024-02-15T00:57:45.900Z,9.65
2024-02-15T01:02:42.469Z,9.83
2024-02-15T01:07:39.040Z,9.54
2024-02-15T01:12:36.316Z,9.39
2024-02-15T01:17:32.921Z,8.96
2024-02-15T01:22:29.520Z,9.31
2024-02-15T01:27:30.265Z,9.67
2024-02-15T01:32:27.527Z,9.29
2024-02-15T01:37:24.141Z,9.53
2024-02-15T01:42:20.691Z,9.29
2024-02-15T01:47:17.804Z,9.17
2024-02-15T01:52:16.498Z,8.90
2024-02-15T01:57:13.101Z,8.80
2024-02-15T02:02:11.648Z,8.41
2024-02-15T02:07:08.550Z,8.51
2024-02-15T02:12:07.951Z,8.41
2024-02-15T02:17:22.447Z,8.44
2024-02-15T02:22:19.919Z,8.37
2024-02-15T02:27:18.166Z,8.41
2024-02-15T02:32:14.669Z,8.44
2024-02-15T02:37:12.420Z,8.38
2024-02-15T02:42:08.926Z,9.00
2024-02-15T02:47:06.171Z,8.76
2024-02-15T02:52:03.473Z,8.94
2024-02-15T02:57:00.162Z,8.80
2024-02-15T03:01:57.872Z,8.59
2024-02-15T03:06:56.471Z,8.51
2024-02-15T03:11:53.041Z,8.55
2024-02-15T03:16:49.601Z,8.89
2024-02-15T03:21:47.115Z,9.29
2024-02-15T03:26:44.741Z,9.69
2024-02-15T03:31:41.245Z,9.74
2024-02-15T03:36:38.008Z,9.64
2024-02-15T03:41:34.950Z,9.08
2024-02-15T03:46:32.916Z,8.75
2024-02-15T03:51:29.636Z,8.63
2024-02-15T03:56:26.378Z,8.15
2024-02-15T04:01:23.021Z,8.15
2024-02-15T04:06:20.819Z,7.93
2024-02-15T04:11:17.380Z,7.76
2024-02-15T04:16:14.352Z,7.72
2024-02-15T04:21:10.897Z,7.74
2024-02-15T04:26:08.230Z,8.02
2024-02-15T04:31:05.910Z,8.17
2024-02-15T04:36:07.100Z,7.95
2024-02-15T04:41:04.460Z,7.98
2024-02-15T04:46:01.798Z,7.39
2024-02-15T04:50:59.894Z,7.31
2024-02-15T04:55:56.425Z,7.34
2024-02-15T05:00:57.733Z,7.61
2024-02-15T05:05:55.151Z,8.15
2024-02-15T05:10:57.001Z,8.34
2024-02-15T05:15:53.545Z,8.33
2024-02-15T05:20:50.109Z,8.10
2024-02-15T05:25:47.430Z,7.53
2024-02-15T05:30:45.142Z,7.73
2024-02-15T05:35:43.732Z,7.84
2024-02-15T05:40:40.332Z,8.19
2024-02-15T05:45:40.135Z,8.01
2024-02-15T05:50:36.845Z,7.83
2024-02-15T05:55:34.835Z,7.46
2024-02-15T06:00:31.717Z,7.27
2024-02-15T06:05:29.351Z,6.94
2024-02-15T06:10:26.321Z,7.17
2024-02-15T06:15:24.122Z,7.43
2024-02-15T06:20:21.756Z,7.45
2024-02-15T06:25:21.206Z,7.56
2024-02-15T06:30:35.703Z,7.79
2024-02-15T06:35:50.602Z,7.82
2024-02-15T06:40:47.953Z,7.62
2024-02-15T06:45:47.098Z,7.35
2024-02-15T06:50:43.690Z,7.20
2024-02-15T06:55:40.743Z,6.97
2024-02-15T07:00:40.418Z,7.01
2024-02-15T07:05:38.584Z,7.47
2024-02-15T07:10:35.141Z,7.34
2024-02-15T07:15:33.535Z,7.35
2024-02-15T07:20:31.354Z,7.58
2024-02-15T07:25:28.021Z,8.19
2024-02-15T07:30:26.504Z,7.77
2024-02-15T07:35:25.454Z,7.69
2024-02-15T07:40:22.897Z,7.25
2024-02-15T07:45:19.555Z,7.14
2024-02-15T07:50:20.501Z,7.10
2024-02-15T07:55:17.113Z,7.19
2024-02-15T08:00:16.936Z,7.53
2024-02-15T08:05:15.095Z,7.58
2024-02-15T08:10:13.540Z,7.69
2024-02-15T08:15:12.446Z,7.80
2024-02-15T08:20:11.052Z,7.69
2024-02-15T08:25:10.813Z,8.03
2024-02-15T08:30:09.759Z,7.94
2024-02-15T08:35:08.347Z,8.20
2024-02-15T08:40:11.292Z,8.60
2024-02-15T08:45:09.618Z,8.49
2024-02-15T08:50:07.097Z,8.61
2024-02-15T08:55:07.312Z,8.65
2024-02-15T09:00:10.323Z,8.90
2024-02-15T09:05:07.267Z,9.01
2024-02-15T09:10:03.961Z,9.18
2024-02-15T09:15:00.548Z,9.44
2024-02-15T09:19:57.849Z,9.39
2024-02-15T09:24:54.500Z,9.50
2024-02-15T09:29:51.039Z,9.60
2024-02-15T09:34:47.703Z,9.76
2024-02-15T09:39:45.087Z,10.12
2024-02-15T09:44:44.294Z,10.18
2024-02-15T09:49:41.549Z,10.13
2024-02-15T09:54:40.452Z,9.65
2024-02-15T09:59:38.018Z,9.96
2024-02-15T10:04:35.159Z,10.13
2024-02-15T10:09:31.877Z,10.13
2024-02-15T10:14:29.617Z,10.30
2024-02-15T10:19:27.628Z,10.55
2024-02-15T10:24:24.744Z,10.27
2024-02-15T10:29:21.297Z,10.70
2024-02-15T10:34:19.684Z,10.50
2024-02-15T10:39:19.938Z,10.98
2024-02-15T10:44:19.366Z,11.32
2024-02-15T10:49:17.529Z,11.43
2024-02-15T10:54:16.624Z,11.66
2024-02-15T10:59:17.648Z,11.66
2024-02-15T11:04:16.008Z,11.62
2024-02-15T11:09:13.947Z,11.73
2024-02-15T11:14:27.755Z,11.89
2024-02-15T11:19:46.434Z,11.88
2024-02-15T11:24:46.964Z,11.96
2024-02-15T11:29:50.858Z,12.09
2024-02-15T11:34:48.698Z,11.93
2024-02-15T11:39:46.459Z,12.10
2024-02-15T11:44:43.031Z,12.14
2024-02-15T11:49:40.593Z,12.13
2024-02-15T11:54:37.738Z,12.21
2024-02-15T11:59:53.859Z,12.28
2024-02-15T12:05:08.930Z,12.33
2024-02-15T12:10:23.832Z,12.34
2024-02-15T12:15:38.892Z,12.37
2024-02-15T12:20:36.545Z,12.35
2024-02-15T12:25:36.114Z,12.38
2024-02-15T12:30:33.725Z,12.41
2024-02-15T12:35:30.268Z,12.33
2024-02-15T12:40:31.343Z,12.31
2024-02-15T12:45:30.148Z,12.33
2024-02-15T12:50:28.743Z,12.43
2024-02-15T12:55:25.862Z,12.49
2024-02-15T13:00:28.587Z,12.37
2024-02-15T13:05:26.768Z,12.45
2024-02-15T13:10:24.213Z,12.48
2024-02-15T13:15:22.090Z,12.45
2024-02-15T13:20:20.945Z,12.58
2024-02-15T13:25:17.855Z,12.25
2024-02-15T13:30:14.784Z,12.35
2024-02-15T13:35:13.592Z,12.34
2024-02-15T13:40:15.526Z,12.39
2024-02-15T13:45:14.357Z,12.51
2024-02-15T13:50:14.692Z,12.57
2024-02-15T13:55:12.658Z,12.61
2024-02-15T14:00:13.693Z,12.69
2024-02-15T14:05:11.956Z,12.75
2024-02-15T14:10:08.828Z,12.75
2024-02-15T14:15:07.366Z,12.78
2024-02-15T14:20:08.890Z,12.79
2024-02-15T14:25:06.343Z,12.79
2024-02-15T14:30:20.628Z,12.80
2024-02-15T14:35:18.026Z,12.78
2024-02-15T14:40:18.602Z,12.77
2024-02-15T14:45:15.732Z,12.77
2024-02-15T14:50:14.424Z,12.71
2024-02-15T14:55:11.952Z,12.69
2024-02-15T15:00:12.836Z,12.76
2024-02-15T15:05:27.740Z,12.77
2024-02-15T15:10:43.033Z,12.80
2024-02-15T15:15:40.436Z,12.74
2024-02-15T15:20:37.708Z,12.82
2024-02-15T15:25:35.303Z,12.78
2024-02-15T15:30:32.125Z,12.81
2024-02-15T15:35:32.893Z,12.81
2024-02-15T15:40:32.422Z,12.83
2024-02-15T15:45:30.177Z,12.89
2024-02-15T15:50:28.779Z,12.90
2024-02-15T15:55:26.517Z,12.98
2024-02-15T16:00:23.503Z,12.80
2024-02-15T16:05:21.091Z,12.84
2024-02-15T16:10:18.728Z,12.95
2024-02-15T16:15:15.351Z,13.03
2024-02-15T16:20:14.233Z,12.92
2024-02-15T16:25:13.988Z,12.72
2024-02-15T16:30:11.293Z,12.45
2024-02-15T16:35:11.253Z,12.17
2024-02-15T16:40:09.275Z,12.04
2024-02-15T16:45:07.933Z,11.93
2024-02-15T16:50:08.110Z,12.07
2024-02-15T16:55:06.296Z,12.25
2024-02-15T17:00:05.802Z,11.97
2024-02-15T17:05:04.542Z,12.26
2024-02-15T17:10:01.198Z,12.37
2024-02-15T17:14:57.853Z,12.44
2024-02-15T17:19:54.448Z,12.34
2024-02-15T17:24:51.683Z,12.39
2024-02-15T17:29:48.279Z,12.36
2024-02-15T17:34:45.181Z,12.03
2024-02-15T17:39:43.755Z,12.05
2024-02-15T17:44:44.878Z,11.91
2024-02-15T17:49:41.425Z,11.83
2024-02-15T17:54:38.145Z,11.79
2024-02-15T17:59:35.165Z,11.66
2024-02-15T18:04:32.502Z,11.37
2024-02-15T18:09:29.414Z,11.27
2024-02-15T18:14:26.303Z,11.33
2024-02-15T18:19:22.820Z,11.51
2024-02-15T18:24:20.166Z,11.71
2024-02-15T18:29:19.074Z,11.93
2024-02-15T18:34:15.746Z,11.82
2024-02-15T18:39:13.003Z,11.73
2024-02-15T18:44:11.993Z,11.78
2024-02-15T18:49:20.324Z,11.95
2024-02-15T18:54:24.760Z,12.20
2024-02-15T18:59:22.384Z,12.34
2024-02-15T19:04:19.137Z,12.20
2024-02-15T19:09:18.501Z,12.04
2024-02-15T19:14:16.235Z,11.89
2024-02-15T19:19:13.605Z,12.08
2024-02-15T19:24:10.469Z,12.13
2024-02-15T19:29:08.213Z,12.18
2024-02-15T19:34:04.887Z,12.34
2024-02-15T19:39:02.233Z,12.42
2024-02-15T19:43:58.783Z,12.49
2024-02-15T19:48:55.500Z,12.48
2024-02-15T19:53:52.267Z,12.56
2024-02-15T19:58:49.515Z,12.58
2024-02-15T20:03:47.592Z,12.56
2024-02-15T20:08:45.054Z,12.46
2024-02-15T20:13:42.329Z,12.41
2024-02-15T20:18:40.776Z,11.85
2024-02-15T20:23:39.630Z,11.79
2024-02-15T20:28:36.372Z,11.70
2024-02-15T20:33:33.740Z,11.79
2024-02-15T20:38:31.587Z,11.80
2024-02-15T20:43:29.040Z,11.88
2024-02-15T20:48:26.119Z,11.93
2024-02-15T20:53:22.732Z,11.93
2024-02-15T20:58:19.889Z,12.04
2024-02-15T21:03:17.576Z,11.97
2024-02-15T21:08:14.222Z,11.97
2024-02-15T21:13:11.090Z,11.84
2024-02-15T21:18:10.541Z,11.74
2024-02-15T21:23:09.981Z,11.61
2024-02-15T21:28:08.142Z,11.67
2024-02-15T21:33:06.219Z,11.67
2024-02-15T21:38:03.945Z,11.66
2024-02-15T21:43:00.562Z,11.53
2024-02-15T21:47:57.332Z,11.59
2024-02-15T21:52:53.888Z,11.57
2024-02-15T21:57:51.077Z,11.53
2024-02-15T22:02:47.700Z,11.53
2024-02-15T22:07:44.296Z,11.56
2024-02-15T22:12:40.811Z,11.57
2024-02-15T22:17:38.320Z,11.51
2024-02-15T22:22:35.207Z,11.55
2024-02-15T22:27:31.881Z,11.52
2024-02-15T22:32:28.454Z,11.52
2024-02-15T22:37:27.860Z,11.57
2024-02-15T22:42:24.395Z,11.61
2024-02-15T22:47:20.864Z,11.64
2024-02-15T22:52:19.468Z,11.52
2024-02-15T22:57:16.912Z,11.57
2024-02-15T23:02:13.377Z,11.68
2024-02-15T23:07:10.442Z,11.65
2024-02-15T23:12:07.283Z,11.57
2024-02-15T23:17:04.712Z,11.15
2024-02-15T23:22:01.247Z,11.08
2024-02-15T23:26:57.838Z,10.91
2024-02-15T23:31:54.386Z,10.95
2024-02-15T23:37:09.686Z,11.03
2024-02-15T23:42:06.298Z,10.99
2024-02-15T23:47:02.978Z,10.94
2024-02-15T23:52:00.226Z,11.01
2024-02-15T23:56:56.883Z,10.89
